Time;durP1;ratioP1;P1;durP2;ratioP2;P2;SDS_P1;SDS_P2;PMS_P1;PMS_P2;Temp;Humidity;BMP_temperature;BMP_pressure;BME280_temperature;BME280_humidity;BME280_pressure;Samples;Min_cycle;Max_cycle;Signal;HPM_P1;HPM_P2
2023/02/19 00:01:27;;;;;;;4.37;2.70;;;11.50;1.00;;;;;;5056215;28;20877;-58
2023/02/19 00:03:55;;;;;;;3.00;2.53;;;11.50;1.00;;;;;;5055152;28;20807;-58
2023/02/19 00:06:22;;;;;;;3.43;2.57;;;11.50;1.00;;;;;;5055409;28;20909;-58
2023/02/19 00:08:48;;;;;;;3.20;2.70;;;11.50;1.00;;;;;;5054420;28;20813;-57
2023/02/19 00:11:16;;;;;;;5.13;2.40;;;11.50;1.00;;;;;;5045197;28;20449;-57
2023/02/19 00:13:44;;;;;;;3.70;2.90;;;11.50;1.00;;;;;;5048944;28;20526;-59
2023/02/19 00:16:14;;;;;;;4.50;3.33;;;11.60;1.00;;;;;;5051567;28;20445;-58
2023/02/19 00:18:40;;;;;;;3.87;2.37;;;11.50;1.00;;;;;;5041274;28;20462;-58
2023/02/19 00:21:06;;;;;;;3.10;2.80;;;11.50;1.00;;;;;;5047551;28;21053;-58
2023/02/19 00:23:32;;;;;;;3.80;2.87;;;11.50;1.00;;;;;;5046915;28;20428;-58
2023/02/19 00:26:11;;;;;;;4.13;2.73;;;11.50;1.00;;;;;;5047010;28;20964;-58
2023/02/19 00:28:38;;;;;;;3.30;2.30;;;11.50;1.00;;;;;;5050823;28;20211;-57
2023/02/19 00:31:22;;;;;;;3.47;3.10;;;11.70;1.00;;;;;;5053095;28;21027;-58
2023/02/19 00:33:49;;;;;;;4.73;1.90;;;11.70;1.00;;;;;;5048604;28;20457;-60
2023/02/19 00:36:15;;;;;;;3.23;2.50;;;11.70;1.00;;;;;;5053610;28;20474;-58
2023/02/19 00:38:42;;;;;;;4.13;2.50;;;11.70;1.00;;;;;;5069365;28;20416;-58
2023/02/19 00:41:18;;;;;;;3.70;2.70;;;11.70;1.00;;;;;;5043538;28;20454;-58
2023/02/19 00:43:54;;;;;;;2.87;2.30;;;11.70;1.00;;;;;;5061611;28;20542;-58
2023/02/19 00:46:25;;;;;;;3.00;2.30;;;11.60;1.00;;;;;;5060021;28;20424;-58
2023/02/19 00:48:51;;;;;;;3.93;2.63;;;11.60;1.00;;;;;;5048850;28;21074;-57
2023/02/19 00:51:18;;;;;;;4.67;3.00;;;11.40;1.00;;;;;;5049501;28;20449;-59
2023/02/19 00:53:44;;;;;;;2.47;2.10;;;11.40;1.00;;;;;;5066992;28;20800;-57
2023/02/19 00:56:10;;;;;;;6.53;2.53;;;11.30;1.00;;;;;;5052594;28;20449;-58
2023/02/19 00:58:36;;;;;;;2.33;2.10;;;11.30;1.00;;;;;;5046673;28;20265;-57
2023/02/19 01:01:04;;;;;;;4.30;3.00;;;11.40;1.00;;;;;;5071615;28;20444;-58
2023/02/19 01:03:30;;;;;;;3.17;2.03;;;11.40;1.00;;;;;;5057477;28;20768;-58
2023/02/19 01:05:55;;;;;;;4.23;2.43;;;11.40;1.00;;;;;;5061860;28;20487;-58
2023/02/19 01:08:21;;;;;;;3.67;2.57;;;11.40;1.00;;;;;;5048088;28;20196;-57
2023/02/19 01:10:47;;;;;;;3.07;2.40;;;11.40;1.00;;;;;;5050620;28;20258;-59
2023/02/19 01:13:13;;;;;;;3.30;2.60;;;11.30;1.00;;;;;;5044335;28;20253;-59
2023/02/19 01:15:38;;;;;;;3.50;2.60;;;11.40;1.00;;;;;;5043134;28;20471;-58
2023/02/19 01:18:04;;;;;;;2.97;2.30;;;11.40;1.00;;;;;;5058078;28;20420;-57
2023/02/19 01:20:30;;;;;;;2.70;2.27;;;11.40;1.00;;;;;;5043494;28;20802;-58
2023/02/19 01:22:55;;;;;;;3.50;2.60;;;11.40;1.00;;;;;;5048329;28;20413;-59
2023/02/19 01:25:21;;;;;;;2.73;1.67;;;11.50;1.00;;;;;;5045813;28;20192;-59
2023/02/19 01:27:47;;;;;;;4.13;2.23;;;11.40;1.00;;;;;;5051021;28;20184;-58
2023/02/19 01:30:12;;;;;;;2.33;1.90;;;11.50;1.00;;;;;;5047829;28;20190;-58
2023/02/19 01:32:38;;;;;;;2.73;2.00;;;11.40;1.00;;;;;;5053234;28;20253;-58
2023/02/19 01:35:04;;;;;;;2.10;1.90;;;11.50;1.00;;;;;;5047574;28;20269;-58
2023/02/19 01:37:30;;;;;;;2.53;1.50;;;11.50;1.00;;;;;;5046926;28;20187;-58
2023/02/19 01:39:55;;;;;;;3.63;2.37;;;11.60;1.00;;;;;;5044386;28;20235;-59
2023/02/19 01:42:21;;;;;;;2.77;2.17;;;11.60;1.00;;;;;;5051644;28;20453;-58
2023/02/19 01:44:46;;;;;;;3.20;2.43;;;11.60;1.00;;;;;;5048777;28;20208;-58
2023/02/19 01:47:15;;;;;;;2.20;2.00;;;11.50;1.00;;;;;;5049653;28;20664;-58
2023/02/19 01:49:47;;;;;;;3.63;2.60;;;11.50;1.00;;;;;;5049487;28;20681;-58
2023/02/19 01:52:16;;;;;;;2.60;2.30;;;11.50;1.00;;;;;;5048453;28;20482;-58
2023/02/19 01:54:43;;;;;;;3.07;2.40;;;11.50;1.00;;;;;;5045177;28;20453;-58
2023/02/19 01:57:17;;;;;;;3.90;2.50;;;11.60;1.00;;;;;;5047757;28;20413;-58
2023/02/19 01:59:45;;;;;;;3.47;2.43;;;11.50;1.00;;;;;;5055242;28;20453;-57
2023/02/19 02:02:11;;;;;;;5.53;2.97;;;11.40;1.00;;;;;;5046646;28;20537;-58
2023/02/19 02:04:37;;;;;;;5.87;3.13;;;11.40;1.00;;;;;;5050398;28;20520;-57
2023/02/19 02:10:18;;;;;;;3.17;2.30;;;11.30;1.00;;;;;;5053058;28;20586;-59
2023/02/19 02:12:34;;;;;;;4.20;2.70;;;11.30;1.00;;;;;;5058089;28;20539;-57
2023/02/19 02:15:00;;;;;;;4.90;2.80;;;11.20;1.00;;;;;;5055721;28;20682;-57
2023/02/19 02:17:30;;;;;;;2.07;1.60;;;11.20;1.00;;;;;;5065600;28;20187;-58
2023/02/19 02:19:55;;;;;;;2.13;1.90;;;11.20;1.00;;;;;;5053575;28;20184;-58
2023/02/19 02:22:29;;;;;;;2.50;2.10;;;11.20;1.00;;;;;;5045991;28;20546;-57
2023/02/19 02:25:25;;;;;;;2.60;2.07;;;11.20;1.00;;;;;;5047121;28;20203;-57
2023/02/19 02:28:15;;;;;;;1.90;1.60;;;11.10;1.00;;;;;;5026745;28;20462;-57
2023/02/19 02:30:50;;;;;;;2.03;1.63;;;11.00;1.00;;;;;;5044075;28;21024;-57
2023/02/19 02:33:38;;;;;;;2.23;1.40;;;10.90;1.00;;;;;;5056064;28;20757;-58
2023/02/19 02:36:13;;;;;;;1.93;1.60;;;10.80;1.00;;;;;;5055126;28;20455;-56
2023/02/19 02:38:43;;;;;;;2.50;1.50;;;10.70;1.00;;;;;;5060668;28;20491;-56
2023/02/19 02:41:10;;;;;;;2.67;2.27;;;10.80;1.00;;;;;;5054964;28;20488;-57
2023/02/19 02:43:36;;;;;;;1.93;1.50;;;10.80;1.00;;;;;;5056998;28;20421;-56
2023/02/19 02:46:01;;;;;;;2.00;1.80;;;10.80;1.00;;;;;;5057976;28;20947;-57
2023/02/19 02:48:30;;;;;;;2.00;1.77;;;10.80;1.00;;;;;;5056123;28;20212;-57
2023/02/19 02:51:20;;;;;;;2.47;1.60;;;10.80;1.00;;;;;;5053871;28;20350;-56
2023/02/19 02:56:45;;;;;;;1.80;1.40;;;10.90;1.00;;;;;;5054493;28;20503;-56
2023/02/19 02:59:13;;;;;;;1.50;1.30;;;10.80;1.00;;;;;;5059728;28;20471;-57
2023/02/19 03:08:10;;;;;;;1.30;1.20;;;10.70;1.00;;;;;;5056534;28;20702;-57
2023/02/19 03:10:43;;;;;;;1.13;1.03;;;10.70;1.00;;;;;;5050264;28;20500;-57
2023/02/19 03:21:44;;;;;;;2.13;2.00;;;10.70;1.00;;;;;;5050170;28;20453;-57
2023/02/19 03:27:01;;;;;;;1.53;0.67;;;10.60;1.00;;;;;;5047260;28;20467;-57
2023/02/19 03:29:30;;;;;;;1.00;0.90;;;10.70;1.00;;;;;;5048150;28;20434;-57
2023/02/19 03:32:00;;;;;;;0.70;0.70;;;10.70;1.00;;;;;;5045535;28;20428;-57
2023/02/19 03:34:37;;;;;;;1.60;0.90;;;10.70;1.00;;;;;;5053395;28;21009;-57
2023/02/19 03:37:12;;;;;;;1.50;0.70;;;10.80;1.00;;;;;;5047820;28;20421;-58
2023/02/19 03:39:43;;;;;;;1.17;0.90;;;10.70;1.00;;;;;;5044908;28;20989;-58
2023/02/19 03:42:37;;;;;;;1.30;0.80;;;10.80;1.00;;;;;;5053705;28;20480;-58
2023/02/19 03:45:22;;;;;;;1.73;1.10;;;10.80;1.00;;;;;;5045588;28;20435;-57
2023/02/19 03:48:06;;;;;;;1.10;0.90;;;10.90;1.00;;;;;;5047246;28;20838;-59
2023/02/19 03:50:41;;;;;;;0.70;0.70;;;10.90;1.00;;;;;;5044286;28;20500;-57
2023/02/19 03:53:44;;;;;;;2.10;1.20;;;10.90;1.00;;;;;;5045650;28;20417;-58
2023/02/19 03:56:17;;;;;;;1.10;0.90;;;11.00;1.00;;;;;;5047083;28;20466;-58
2023/02/19 03:58:59;;;;;;;1.20;0.90;;;11.00;1.00;;;;;;5044127;28;20532;-57
2023/02/19 04:01:43;;;;;;;2.20;1.50;;;11.00;1.00;;;;;;5044785;28;20433;-58
2023/02/19 04:04:23;;;;;;;0.90;0.90;;;11.00;1.00;;;;;;5048360;28;20436;-58
2023/02/19 04:06:54;;;;;;;0.70;0.70;;;11.00;1.00;;;;;;5057262;28;20493;-57
2023/02/19 04:09:22;;;;;;;0.60;0.60;;;10.80;1.00;;;;;;5047451;28;20808;-58
2023/02/19 04:11:50;;;;;;;1.50;0.60;;;10.80;1.00;;;;;;5058376;28;20435;-57
2023/02/19 04:14:25;;;;;;;1.40;0.80;;;10.90;1.00;;;;;;5047280;28;21214;-58
2023/02/19 04:17:01;;;;;;;0.87;0.83;;;10.80;1.00;;;;;;5045177;28;20424;-59
2023/02/19 04:19:31;;;;;;;0.60;0.60;;;10.80;1.00;;;;;;5050525;28;20446;-57
2023/02/19 04:21:58;;;;;;;0.70;0.70;;;10.80;1.00;;;;;;5054698;28;20963;-58
2023/02/19 04:24:48;;;;;;;1.23;0.70;;;10.90;1.00;;;;;;5048577;28;20812;-58
2023/02/19 04:27:14;;;;;;;3.07;2.07;;;10.80;1.00;;;;;;5049929;28;20461;-57
2023/02/19 04:29:40;;;;;;;0.47;0.47;;;10.70;1.00;;;;;;5054625;28;20628;-59
2023/02/19 04:32:08;;;;;;;0.60;0.40;;;10.80;1.00;;;;;;5049019;28;20525;-59
2023/02/19 04:34:34;;;;;;;0.40;0.40;;;10.80;1.00;;;;;;5046190;28;20542;-57
2023/02/19 04:36:59;;;;;;;0.57;0.57;;;10.80;1.00;;;;;;5051934;28;20435;-57
2023/02/19 04:39:25;;;;;;;1.40;0.40;;;11.00;1.00;;;;;;5057759;28;20206;-57
2023/02/19 04:41:50;;;;;;;0.80;0.40;;;10.80;1.00;;;;;;5067541;28;20206;-58
2023/02/19 04:44:16;;;;;;;0.60;0.40;;;10.80;1.00;;;;;;5044826;28;20206;-57
2023/02/19 04:46:42;;;;;;;1.07;0.40;;;10.80;1.00;;;;;;5053129;28;20183;-57
2023/02/19 04:49:07;;;;;;;1.47;0.50;;;10.90;1.00;;;;;;5049144;28;20257;-57
2023/02/19 04:51:33;;;;;;;0.40;0.40;;;10.90;1.00;;;;;;5049606;28;20183;-57
2023/02/19 04:53:58;;;;;;;0.50;0.50;;;10.80;1.00;;;;;;5048182;28;20231;-58
2023/02/19 04:56:24;;;;;;;0.67;0.50;;;10.70;1.00;;;;;;5046187;28;20216;-58
2023/02/19 04:58:49;;;;;;;0.70;0.40;;;10.70;1.00;;;;;;5044681;28;20192;-58
2023/02/19 05:01:15;;;;;;;1.30;0.90;;;10.70;1.00;;;;;;5048525;28;20574;-58
2023/02/19 05:03:41;;;;;;;2.20;2.00;;;10.80;1.00;;;;;;5045668;28;20211;-58
2023/02/19 05:06:09;;;;;;;0.80;0.80;;;10.80;1.00;;;;;;5049185;28;20193;-58
2023/02/19 05:08:35;;;;;;;1.67;0.70;;;10.80;1.00;;;;;;5045115;28;20195;-57
2023/02/19 05:11:03;;;;;;;0.80;0.60;;;10.80;1.00;;;;;;5049685;28;20432;-58
2023/02/19 05:13:29;;;;;;;0.80;0.80;;;10.60;17.60;;;;;;5050065;28;20933;-58
2023/02/19 05:15:56;;;;;;;2.20;0.83;;;10.60;57.70;;;;;;5046605;28;20466;-57
2023/02/19 05:18:22;;;;;;;1.37;0.83;;;10.50;93.20;;;;;;5047373;28;20527;-58
2023/02/19 05:20:48;;;;;;;1.60;0.67;;;10.40;99.90;;;;;;5047756;28;20457;-57
2023/02/19 05:23:14;;;;;;;2.90;0.90;;;10.40;99.90;;;;;;5044381;28;20189;-56
2023/02/19 05:25:39;;;;;;;1.27;0.90;;;10.30;99.90;;;;;;5049763;28;20527;-57
2023/02/19 05:28:17;;;;;;;0.87;0.80;;;10.20;99.90;;;;;;5050382;28;20196;-57
2023/02/19 05:30:45;;;;;;;0.70;0.60;;;10.10;1.00;;;;;;5062574;28;20545;-56
2023/02/19 05:33:12;;;;;;;1.17;0.90;;;10.00;1.00;;;;;;5058082;28;20429;-58
2023/02/19 05:35:47;;;;;;;6.97;1.67;;;10.00;1.00;;;;;;5061119;28;20465;-59
2023/02/19 05:38:13;;;;;;;0.77;0.73;;;9.90;1.00;;;;;;5058715;28;20430;-58
2023/02/19 05:40:39;;;;;;;0.73;0.53;;;9.80;1.00;;;;;;5071457;28;20450;-58
2023/02/19 05:43:06;;;;;;;1.43;0.50;;;9.80;1.00;;;;;;5065437;28;20438;-58
2023/02/19 05:45:32;;;;;;;0.67;0.50;;;9.70;1.00;;;;;;5071760;28;20254;-60
2023/02/19 05:47:58;;;;;;;1.43;0.50;;;9.70;1.00;;;;;;5067856;28;20976;-58
2023/02/19 05:50:24;;;;;;;0.43;0.43;;;9.60;1.00;;;;;;5064653;28;20538;-58
2023/02/19 05:52:50;;;;;;;2.50;0.60;;;9.60;1.00;;;;;;5059894;28;20230;-57
2023/02/19 05:55:15;;;;;;;1.23;0.43;;;9.60;1.00;;;;;;5070972;28;20233;-57
2023/02/19 05:57:43;;;;;;;0.97;0.40;;;9.70;1.00;;;;;;5058908;28;20194;-59
2023/02/19 06:00:16;;;;;;;0.30;0.30;;;9.70;1.00;;;;;;5061469;28;20195;-59
2023/02/19 06:02:42;;;;;;;0.30;0.30;;;9.70;1.00;;;;;;5062765;28;20437;-58
2023/02/19 06:05:08;;;;;;;0.50;0.30;;;9.70;1.00;;;;;;5054133;28;20985;-59
2023/02/19 06:07:34;;;;;;;0.60;0.50;;;9.70;1.00;;;;;;5054036;28;20182;-58
2023/02/19 06:10:00;;;;;;;0.40;0.40;;;9.70;1.00;;;;;;5068513;28;20494;-58
2023/02/19 06:12:26;;;;;;;0.40;0.37;;;9.70;1.00;;;;;;5063683;28;20449;-57
2023/02/19 06:14:52;;;;;;;0.30;0.30;;;9.70;1.00;;;;;;5064031;28;20468;-57
2023/02/19 06:17:17;;;;;;;0.40;0.40;;;9.70;1.00;;;;;;5062138;28;20465;-59
2023/02/19 06:19:43;;;;;;;0.63;0.50;;;9.80;1.00;;;;;;5062324;28;20226;-57
2023/02/19 06:22:09;;;;;;;0.30;0.30;;;9.70;1.00;;;;;;5070439;28;20691;-57
2023/02/19 06:24:36;;;;;;;0.40;0.40;;;9.70;1.00;;;;;;5065034;28;20216;-56
2023/02/19 06:27:05;;;;;;;0.40;0.40;;;9.80;1.00;;;;;;5065171;28;20474;-58
2023/02/19 06:29:31;;;;;;;0.57;0.40;;;9.70;1.00;;;;;;5063354;28;20469;-58
2023/02/19 06:31:57;;;;;;;0.50;0.40;;;9.70;1.00;;;;;;5052652;28;20477;-58
2023/02/19 06:34:23;;;;;;;0.90;0.50;;;9.70;1.00;;;;;;5063046;28;20439;-58
2023/02/19 06:36:49;;;;;;;0.40;0.33;;;9.70;1.00;;;;;;5054278;28;20430;-56
2023/02/19 06:39:14;;;;;;;0.50;0.50;;;9.80;1.00;;;;;;5066379;28;20803;-59
2023/02/19 06:41:40;;;;;;;0.50;0.50;;;9.80;1.00;;;;;;5059031;28;20450;-58
2023/02/19 06:44:06;;;;;;;0.40;0.40;;;9.80;1.00;;;;;;5057560;28;20226;-58
2023/02/19 06:46:31;;;;;;;0.40;0.40;;;9.70;1.00;;;;;;5058198;28;20188;-58
2023/02/19 06:48:57;;;;;;;0.40;0.37;;;9.70;1.00;;;;;;5059141;28;20193;-57
2023/02/19 06:51:25;;;;;;;0.43;0.43;;;9.80;99.90;;;;;;5055026;28;20191;-58
2023/02/19 06:53:51;;;;;;;0.53;0.47;;;9.90;99.90;;;;;;5053374;28;20551;-57
2023/02/19 06:56:30;;;;;;;0.40;0.40;;;9.90;99.90;;;;;;5055036;28;20473;-57
2023/02/19 06:58:58;;;;;;;0.63;0.63;;;9.80;99.90;;;;;;5060012;28;20468;-58
2023/02/19 07:01:25;;;;;;;1.13;0.67;;;9.80;99.90;;;;;;5053681;28;20443;-56
2023/02/19 07:03:52;;;;;;;0.90;0.60;;;9.90;99.90;;;;;;5067721;28;20877;-57
2023/02/19 07:06:19;;;;;;;0.43;0.43;;;9.90;99.90;;;;;;5056534;28;20944;-57
2023/02/19 07:08:44;;;;;;;1.20;0.60;;;9.90;99.90;;;;;;5058150;28;20428;-58
2023/02/19 07:11:10;;;;;;;0.70;0.63;;;9.80;99.90;;;;;;5052661;28;20451;-58
2023/02/19 07:13:36;;;;;;;0.70;0.47;;;9.90;99.90;;;;;;5050701;28;21085;-57
2023/02/19 07:16:06;;;;;;;6.67;2.00;;;9.90;99.90;;;;;;5049385;28;20211;-58
2023/02/19 07:18:33;;;;;;;0.77;0.77;;;10.00;99.90;;;;;;5047358;28;20185;-57
2023/02/19 07:21:03;;;;;;;0.73;0.73;;;9.90;99.90;;;;;;5050343;28;20465;-58
2023/02/19 07:23:29;;;;;;;4.87;0.90;;;9.90;99.90;;;;;;5044728;28;20434;-58
2023/02/19 07:25:55;;;;;;;0.90;0.60;;;10.00;99.90;;;;;;5048830;28;20942;-57
2023/02/19 07:28:20;;;;;;;1.60;0.63;;;10.00;99.90;;;;;;5053193;28;20241;-58
2023/02/19 07:30:46;;;;;;;1.40;1.20;;;10.00;99.90;;;;;;5051603;28;20189;-57
2023/02/19 07:33:11;;;;;;;1.47;1.37;;;9.90;99.90;;;;;;5050397;28;20212;-58
2023/02/19 07:35:37;;;;;;;0.70;0.63;;;9.90;99.90;;;;;;5045578;28;20217;-58
2023/02/19 07:38:02;;;;;;;2.50;0.80;;;9.70;99.90;;;;;;5047392;28;20181;-57
2023/02/19 07:40:28;;;;;;;0.70;0.70;;;9.50;99.90;;;;;;5055574;28;20225;-58
2023/02/19 07:42:54;;;;;;;1.03;0.80;;;9.50;99.90;;;;;;5049215;28;20184;-59
2023/02/19 07:45:19;;;;;;;1.70;0.90;;;9.30;99.90;;;;;;5044688;28;21021;-58
2023/02/19 07:47:45;;;;;;;1.17;1.07;;;9.40;99.90;;;;;;5050135;28;20187;-58
2023/02/19 07:50:10;;;;;;;0.80;0.80;;;9.30;99.90;;;;;;5047330;28;20244;-58
2023/02/19 07:52:36;;;;;;;1.10;1.00;;;9.40;99.90;;;;;;5050403;28;20256;-59
2023/02/19 07:55:02;;;;;;;0.90;0.90;;;9.30;99.90;;;;;;5045619;28;20235;-58
2023/02/19 07:57:28;;;;;;;0.90;0.80;;;9.40;99.90;;;;;;5049401;28;20323;-59
2023/02/19 07:59:54;;;;;;;1.23;0.90;;;9.40;99.90;;;;;;5044664;28;20227;-58
2023/02/19 08:05:05;;;;;;;0.77;0.77;;;9.30;99.90;;;;;;5048001;28;20237;-59
2023/02/19 08:07:34;;;;;;;1.20;1.10;;;9.30;99.90;;;;;;5051322;28;20458;-59
2023/02/19 08:15:37;;;;;;;1.03;0.60;;;9.00;99.90;;;;;;5051617;28;20523;-60
2023/02/19 08:18:03;;;;;;;1.10;1.00;;;8.90;99.30;;;;;;5062319;28;20460;-58
2023/02/19 08:20:28;;;;;;;2.50;1.27;;;8.90;96.80;;;;;;5048683;28;20290;-59
2023/02/19 08:22:54;;;;;;;1.43;0.90;;;8.80;92.60;;;;;;5058092;28;20190;-61
2023/02/19 08:25:19;;;;;;;1.10;1.00;;;8.90;93.80;;;;;;5050298;28;20656;-59
2023/02/19 08:27:45;;;;;;;1.30;1.20;;;8.80;95.80;;;;;;5048450;28;20450;-57
2023/02/19 08:30:11;;;;;;;1.77;1.10;;;8.90;95.40;;;;;;5051859;28;20192;-58
2023/02/19 08:32:36;;;;;;;2.40;1.73;;;9.00;94.70;;;;;;5048802;28;20751;-58
2023/02/19 08:35:02;;;;;;;2.00;1.70;;;8.90;40.80;;;;;;5046803;28;20641;-59
2023/02/19 08:37:28;;;;;;;1.00;0.90;;;8.70;23.70;;;;;;5043203;28;20193;-61
2023/02/19 08:39:53;;;;;;;1.30;1.20;;;8.70;36.60;;;;;;5046227;28;20214;-60
2023/02/19 08:42:19;;;;;;;2.77;1.83;;;8.50;56.40;;;;;;5044801;28;20200;-58
2023/02/19 08:44:44;;;;;;;1.80;1.60;;;8.60;36.20;;;;;;5045028;28;20661;-58
2023/02/19 08:47:10;;;;;;;3.60;3.20;;;8.70;46.20;;;;;;5049257;28;20205;-59
2023/02/19 08:49:35;;;;;;;9.17;3.40;;;8.70;50.40;;;;;;5049555;28;20529;-59
2023/02/19 08:52:01;;;;;;;14.30;5.87;;;8.80;41.60;;;;;;5055490;28;20209;-58
2023/02/19 08:54:27;;;;;;;8.07;4.47;;;8.70;16.20;;;;;;5053856;28;20232;-59
2023/02/19 08:56:52;;;;;;;9.33;4.60;;;8.80;1.00;;;;;;5049165;28;20294;-59
2023/02/19 08:59:19;;;;;;;9.50;5.87;;;8.80;1.00;;;;;;5055274;28;20196;-59
2023/02/19 09:01:45;;;;;;;5.23;3.30;;;8.60;1.00;;;;;;5042699;28;20184;-59
2023/02/19 09:04:13;;;;;;;2.47;1.97;;;8.50;1.00;;;;;;5049131;28;20480;-58
2023/02/19 09:06:39;;;;;;;3.10;2.30;;;8.60;1.00;;;;;;5045072;28;20201;-59
2023/02/19 09:09:04;;;;;;;2.07;1.87;;;8.50;1.00;;;;;;5047609;28;20523;-58
2023/02/19 09:11:30;;;;;;;2.00;1.43;;;8.50;1.00;;;;;;5038868;28;20669;-59
2023/02/19 09:13:56;;;;;;;2.20;1.93;;;8.50;1.00;;;;;;5050450;28;20191;-59
2023/02/19 09:16:22;;;;;;;1.10;1.10;;;8.50;1.00;;;;;;5040692;28;20218;-60
2023/02/19 09:18:47;;;;;;;9.10;6.60;;;8.40;1.00;;;;;;5045395;28;20550;-59
2023/02/19 09:21:13;;;;;;;7.97;5.40;;;8.00;1.00;;;;;;5046519;28;20650;-59
2023/02/19 09:23:39;;;;;;;6.03;3.00;;;8.00;1.00;;;;;;5047988;28;20186;-59
2023/02/19 09:26:08;;;;;;;4.37;3.23;;;7.90;1.00;;;;;;5047495;28;20193;-59
2023/02/19 09:28:34;;;;;;;4.37;3.77;;;7.90;1.00;;;;;;5045143;28;20191;-59
2023/02/19 09:31:07;;;;;;;2.97;2.50;;;7.80;1.00;;;;;;5040722;28;20461;-58
2023/02/19 09:33:33;;;;;;;1.60;0.87;;;7.80;1.00;;;;;;5046374;28;20903;-61
2023/02/19 09:35:59;;;;;;;1.10;1.00;;;7.80;1.00;;;;;;5047620;28;20562;-60
2023/02/19 09:38:26;;;;;;;1.50;1.40;;;7.70;1.00;;;;;;5042666;28;20191;-58
2023/02/19 09:40:51;;;;;;;2.27;1.10;;;7.30;1.00;;;;;;5046674;28;20547;-59
2023/02/19 09:43:23;;;;;;;1.47;0.90;;;7.20;1.00;;;;;;5043887;28;20558;-59
2023/02/19 09:45:59;;;;;;;2.27;1.43;;;7.10;1.00;;;;;;5045105;28;20457;-60
2023/02/19 09:48:25;;;;;;;2.80;1.50;;;7.20;1.00;;;;;;5046263;28;20473;-59
2023/02/19 09:50:51;;;;;;;6.40;2.93;;;7.20;1.00;;;;;;5046162;28;20427;-60
2023/02/19 09:53:33;;;;;;;2.80;1.30;;;7.30;1.00;;;;;;5045775;28;20454;-59
2023/02/19 09:55:59;;;;;;;2.60;0.93;;;7.70;1.00;;;;;;5043234;28;20850;-60
2023/02/19 09:58:30;;;;;;;1.13;1.03;;;8.10;1.00;;;;;;5047496;28;20787;-59
2023/02/19 10:01:00;;;;;;;1.40;1.10;;;8.30;1.00;;;;;;5044342;28;20424;-60
2023/02/19 10:03:33;;;;;;;1.60;1.17;;;8.50;1.00;;;;;;5047692;28;20532;-59
2023/02/19 10:06:04;;;;;;;2.63;1.20;;;8.60;1.00;;;;;;5049665;28;21159;-60
2023/02/19 10:08:32;;;;;;;1.17;1.07;;;8.70;1.00;;;;;;5046460;28;20459;-60
2023/02/19 10:10:59;;;;;;;1.30;1.20;;;8.80;1.00;;;;;;5045774;28;20468;-60
2023/02/19 10:13:37;;;;;;;1.20;1.00;;;9.00;1.00;;;;;;5044514;28;20453;-59
2023/02/19 10:16:08;;;;;;;2.23;1.40;;;9.00;1.00;;;;;;5043460;28;20513;-60
2023/02/19 10:18:42;;;;;;;2.67;1.17;;;8.70;1.00;;;;;;5043410;28;20870;-61
2023/02/19 10:21:16;;;;;;;1.23;1.13;;;8.60;1.00;;;;;;5046225;28;20490;-61
2023/02/19 10:23:43;;;;;;;1.63;0.93;;;8.50;1.00;;;;;;5042197;28;21419;-60
2023/02/19 10:26:08;;;;;;;1.63;1.00;;;8.30;1.00;;;;;;5041754;28;20534;-61
2023/02/19 10:28:35;;;;;;;2.33;1.13;;;8.30;1.00;;;;;;5046279;28;21031;-60
2023/02/19 10:31:04;;;;;;;2.47;1.00;;;8.30;1.00;;;;;;5044871;28;20196;-61
2023/02/19 10:33:30;;;;;;;3.40;1.10;;;8.40;1.00;;;;;;5043436;28;20431;-59
2023/02/19 10:36:17;;;;;;;0.90;0.90;;;8.50;1.00;;;;;;5045174;28;20892;-59
2023/02/19 10:38:46;;;;;;;1.83;1.20;;;8.50;1.00;;;;;;5041257;28;20453;-58
2023/02/19 10:41:19;;;;;;;2.97;1.23;;;8.60;1.00;;;;;;5041342;28;20453;-59
2023/02/19 10:44:03;;;;;;;1.77;1.40;;;8.40;1.00;;;;;;5046962;28;20424;-59
2023/02/19 10:46:35;;;;;;;2.70;1.27;;;8.30;1.00;;;;;;5045945;28;20512;-58
2023/02/19 10:49:05;;;;;;;0.93;0.93;;;8.50;1.00;;;;;;5046610;28;20457;-58
2023/02/19 10:51:39;;;;;;;2.60;1.10;;;8.40;1.00;;;;;;5045591;28;20452;-58
2023/02/19 10:54:06;;;;;;;1.87;1.40;;;8.30;1.00;;;;;;5044632;28;20838;-59
2023/02/19 10:56:32;;;;;;;2.80;1.17;;;8.00;1.00;;;;;;5042584;28;20781;-58
2023/02/19 10:59:13;;;;;;;1.10;1.00;;;8.40;1.00;;;;;;5047475;28;21171;-59
2023/02/19 11:01:58;;;;;;;1.20;1.00;;;8.10;1.00;;;;;;5044993;28;20460;-59
2023/02/19 11:04:25;;;;;;;1.97;1.70;;;8.00;1.00;;;;;;5052023;28;20447;-58
2023/02/19 11:06:51;;;;;;;3.70;1.60;;;8.00;1.00;;;;;;5050044;28;20443;-59
2023/02/19 11:09:25;;;;;;;2.40;1.53;;;8.30;1.00;;;;;;5051191;28;20996;-58
2023/02/19 11:11:52;;;;;;;2.17;1.50;;;8.50;1.00;;;;;;5046445;28;20536;-58
2023/02/19 11:14:22;;;;;;;4.00;1.67;;;8.60;1.00;;;;;;5046157;28;20532;-58
2023/02/19 11:16:57;;;;;;;3.00;1.07;;;8.70;1.00;;;;;;5045531;28;20460;-58
2023/02/19 11:19:38;;;;;;;1.60;1.20;;;8.60;1.00;;;;;;5047089;28;20476;-58
2023/02/19 11:22:28;;;;;;;1.60;1.03;;;8.60;1.00;;;;;;5045653;28;20594;-60
2023/02/19 11:24:54;;;;;;;1.87;0.90;;;8.50;1.00;;;;;;5045850;28;20854;-58
2023/02/19 11:27:22;;;;;;;1.53;1.13;;;8.50;1.00;;;;;;5043188;28;20956;-58
2023/02/19 11:29:48;;;;;;;1.00;0.70;;;8.70;1.00;;;;;;5049723;28;20514;-59
2023/02/19 11:32:19;;;;;;;1.90;0.80;;;8.80;1.00;;;;;;5046233;28;20822;-58
2023/02/19 11:34:46;;;;;;;3.03;1.57;;;8.70;1.00;;;;;;5043402;28;20472;-57
2023/02/19 11:37:14;;;;;;;2.90;0.90;;;8.50;1.00;;;;;;5046111;28;20454;-58
2023/02/19 11:39:43;;;;;;;2.00;1.13;;;8.60;1.00;;;;;;5043056;28;20569;-59
2023/02/19 11:42:27;;;;;;;1.50;0.90;;;8.60;1.00;;;;;;5047857;28;20523;-57
2023/02/19 11:45:34;;;;;;;1.33;1.03;;;8.70;1.00;;;;;;5046336;28;21234;-57
2023/02/19 11:48:15;;;;;;;1.70;1.60;;;8.80;1.00;;;;;;5047452;28;20500;-57
2023/02/19 11:51:22;;;;;;;1.97;1.20;;;8.70;1.00;;;;;;5042262;28;20943;-57
2023/02/19 11:54:03;;;;;;;1.20;1.10;;;8.50;1.00;;;;;;5041569;28;20448;-59
2023/02/19 11:56:35;;;;;;;2.00;1.10;;;8.50;1.00;;;;;;5059348;28;20855;-58
2023/02/19 11:59:18;;;;;;;3.23;1.10;;;8.60;1.00;;;;;;5049922;28;20468;-59
2023/02/19 12:01:59;;;;;;;1.53;1.30;;;8.50;1.00;;;;;;5063250;28;20445;-58
2023/02/19 12:04:40;;;;;;;0.93;0.90;;;8.50;1.00;;;;;;5042052;28;20796;-58
2023/02/19 12:07:50;;;;;;;2.30;1.13;;;8.30;1.00;;;;;;5046408;28;20986;-57
2023/02/19 12:10:33;;;;;;;2.33;1.10;;;8.30;1.00;;;;;;5045005;28;20860;-58
2023/02/19 12:13:37;;;;;;;3.30;1.50;;;8.60;1.00;;;;;;5046665;28;20444;-58
2023/02/19 12:16:32;;;;;;;1.27;1.00;;;8.70;1.00;;;;;;5045008;28;21096;-56
2023/02/19 12:19:43;;;;;;;2.50;0.93;;;8.70;1.00;;;;;;5044098;28;20452;-57
2023/02/19 12:22:26;;;;;;;1.50;1.30;;;8.80;1.00;;;;;;5042117;28;20457;-57
2023/02/19 12:25:03;;;;;;;3.23;0.93;;;8.80;1.00;;;;;;5077841;28;20456;-58
2023/02/19 12:27:47;;;;;;;2.00;1.20;;;8.90;1.00;;;;;;5048666;28;20511;-59
2023/02/19 12:30:52;;;;;;;3.30;1.60;;;9.10;1.00;;;;;;5049860;28;20499;-59
2023/02/19 12:33:29;;;;;;;3.63;1.13;;;9.10;1.00;;;;;;5029753;28;20466;-59
2023/02/19 12:36:27;;;;;;;3.33;1.10;;;9.00;1.00;;;;;;5044662;28;20476;-57
2023/02/19 12:39:03;;;;;;;1.80;0.77;;;8.80;1.00;;;;;;5047734;28;20445;-60
2023/02/19 12:41:43;;;;;;;3.07;1.33;;;8.80;1.00;;;;;;5049873;28;20701;-58
2023/02/19 12:44:21;;;;;;;3.93;1.17;;;9.00;1.00;;;;;;5049289;28;20424;-59
2023/02/19 12:47:00;;;;;;;1.63;1.27;;;8.90;1.00;;;;;;5048283;28;20465;-59
2023/02/19 12:49:43;;;;;;;1.10;1.00;;;8.80;1.00;;;;;;5047834;28;20473;-60
2023/02/19 12:52:24;;;;;;;5.37;1.37;;;8.90;1.00;;;;;;5048221;28;20439;-59
2023/02/19 12:54:53;;;;;;;1.50;1.10;;;9.10;1.00;;;;;;5058882;28;20480;-59
2023/02/19 12:57:45;;;;;;;2.40;1.20;;;9.40;1.00;;;;;;5049848;28;20493;-58
2023/02/19 13:00:30;;;;;;;4.17;1.20;;;9.40;1.00;;;;;;5046556;28;20449;-59
2023/02/19 13:03:32;;;;;;;2.77;1.63;;;9.20;1.00;;;;;;5048842;28;20441;-59
2023/02/19 13:06:03;;;;;;;3.27;1.10;;;9.00;1.00;;;;;;5054079;28;20939;-59
2023/02/19 13:09:08;;;;;;;2.50;0.90;;;8.80;1.00;;;;;;5044985;28;20518;-59
2023/02/19 13:11:40;;;;;;;1.00;0.90;;;8.80;1.00;;;;;;5023577;28;20453;-58
2023/02/19 13:14:29;;;;;;;2.17;1.10;;;9.10;1.00;;;;;;5049196;28;20452;-59
2023/02/19 13:17:02;;;;;;;1.47;0.60;;;9.10;1.00;;;;;;5047147;28;20456;-58
2023/02/19 13:19:30;;;;;;;2.63;1.63;;;8.70;1.00;;;;;;5049823;28;20796;-58
2023/02/19 13:24:59;;;;;;;2.23;0.73;;;8.70;1.00;;;;;;5052282;28;22055;-58
2023/02/19 13:27:43;;;;;;;1.20;0.80;;;8.90;1.00;;;;;;5046171;28;20543;-59
2023/02/19 13:30:30;;;;;;;2.77;0.70;;;8.80;1.00;;;;;;5047505;28;20845;-59
2023/02/19 13:33:22;;;;;;;1.90;0.83;;;9.00;1.00;;;;;;5048197;28;20950;-57
2023/02/19 13:36:08;;;;;;;1.13;0.90;;;9.10;1.00;;;;;;5046204;28;20458;-58
2023/02/19 13:38:42;;;;;;;5.50;1.17;;;9.10;1.00;;;;;;5049062;28;20446;-59
2023/02/19 13:41:26;;;;;;;1.33;0.90;;;9.40;1.00;;;;;;5047593;28;20492;-58
2023/02/19 13:44:03;;;;;;;4.83;1.53;;;9.70;1.00;;;;;;5045508;28;20426;-59
2023/02/19 13:46:38;;;;;;;3.40;0.80;;;9.50;1.00;;;;;;5047636;28;22211;-57
2023/02/19 13:49:27;;;;;;;2.17;0.70;;;9.60;1.00;;;;;;5046725;28;21208;-58
2023/02/19 13:51:56;;;;;;;1.10;0.90;;;9.50;1.00;;;;;;5047378;28;20429;-57
2023/02/19 13:54:30;;;;;;;0.90;0.70;;;9.60;1.00;;;;;;5046892;28;20468;-59
2023/02/19 13:57:21;;;;;;;1.53;0.80;;;9.80;1.00;;;;;;5043326;28;20431;-59